sensor_id;sensor_type;location;lat;lon;timestamp;P1;durP1;ratioP1;P2;durP2;ratioP2
74415;SDS011;62850;42.428;25.618;2023-03-02T00:00:44;16.30;;;7.22;;
74415;SDS011;62850;42.428;25.618;2023-03-02T00:03:12;17.35;;;6.97;;
74415;SDS011;62850;42.428;25.618;2023-03-02T00:05:38;17.35;;;7.65;;
74415;SDS011;62850;42.428;25.618;2023-03-02T00:08:06;19.17;;;7.18;;
74415;SDS011;62850;42.428;25.618;2023-03-02T00:10:33;17.38;;;7.20;;
74415;SDS011;62850;42.428;25.618;2023-03-02T00:13:00;18.00;;;8.68;;
74415;SDS011;62850;42.428;25.618;2023-03-02T00:15:26;16.33;;;6.90;;
74415;SDS011;62850;42.428;25.618;2023-03-02T00:17:51;17.40;;;6.93;;
74415;SDS011;62850;42.428;25.618;2023-03-02T00:20:17;18.55;;;6.82;;
74415;SDS011;62850;42.428;25.618;2023-03-02T00:22:43;15.15;;;6.70;;
74415;SDS011;62850;42.428;25.618;2023-03-02T00:25:10;14.07;;;6.30;;
74415;SDS011;62850;42.428;25.618;2023-03-02T00:27:37;14.60;;;6.35;;
74415;SDS011;62850;42.428;25.618;2023-03-02T00:30:02;14.57;;;6.40;;
74415;SDS011;62850;42.428;25.618;2023-03-02T00:32:28;17.38;;;7.20;;
74415;SDS011;62850;42.428;25.618;2023-03-02T00:34:54;15.05;;;6.55;;
74415;SDS011;62850;42.428;25.618;2023-03-02T00:37:19;13.43;;;6.20;;
74415;SDS011;62850;42.428;25.618;2023-03-02T00:39:45;14.52;;;5.88;;
74415;SDS011;62850;42.428;25.618;2023-03-02T00:42:10;16.02;;;7.03;;
74415;SDS011;62850;42.428;25.618;2023-03-02T00:44:36;13.85;;;6.15;;
74415;SDS011;62850;42.428;25.618;2023-03-02T00:47:01;18.73;;;6.70;;
74415;SDS011;62850;42.428;25.618;2023-03-02T00:49:27;16.83;;;6.80;;
74415;SDS011;62850;42.428;25.618;2023-03-02T00:51:52;15.20;;;6.78;;
74415;SDS011;62850;42.428;25.618;2023-03-02T00:54:18;17.45;;;7.07;;
74415;SDS011;62850;42.428;25.618;2023-03-02T00:56:44;15.60;;;6.97;;
74415;SDS011;62850;42.428;25.618;2023-03-02T00:59:11;14.73;;;6.55;;
74415;SDS011;62850;42.428;25.618;2023-03-02T01:04:25;16.05;;;6.72;;
74415;SDS011;62850;42.428;25.618;2023-03-02T01:06:54;17.80;;;7.20;;
74415;SDS011;62850;42.428;25.618;2023-03-02T01:09:20;21.33;;;7.57;;
74415;SDS011;62850;42.428;25.618;2023-03-02T01:11:45;18.00;;;7.13;;
74415;SDS011;62850;42.428;25.618;2023-03-02T01:14:11;20.20;;;7.85;;
74415;SDS011;62850;42.428;25.618;2023-03-02T01:16:36;19.08;;;7.95;;
74415;SDS011;62850;42.428;25.618;2023-03-02T01:19:02;17.98;;;7.30;;
74415;SDS011;62850;42.428;25.618;2023-03-02T01:21:27;21.40;;;7.93;;
74415;SDS011;62850;42.428;25.618;2023-03-02T01:23:52;17.90;;;8.43;;
74415;SDS011;62850;42.428;25.618;2023-03-02T01:26:18;20.98;;;8.25;;
74415;SDS011;62850;42.428;25.618;2023-03-02T01:28:43;19.05;;;7.45;;
74415;SDS011;62850;42.428;25.618;2023-03-02T01:31:09;25.73;;;9.18;;
74415;SDS011;62850;42.428;25.618;2023-03-02T01:33:34;23.42;;;9.07;;
74415;SDS011;62850;42.428;25.618;2023-03-02T01:36:00;23.90;;;8.95;;
74415;SDS011;62850;42.428;25.618;2023-03-02T01:38:25;23.33;;;8.52;;
74415;SDS011;62850;42.428;25.618;2023-03-02T01:40:51;23.27;;;9.23;;
74415;SDS011;62850;42.428;25.618;2023-03-02T01:43:17;23.00;;;8.93;;
74415;SDS011;62850;42.428;25.618;2023-03-02T01:45:47;23.58;;;9.82;;
74415;SDS011;62850;42.428;25.618;2023-03-02T01:50:58;22.13;;;9.80;;
74415;SDS011;62850;42.428;25.618;2023-03-02T01:53:26;26.58;;;9.50;;
74415;SDS011;62850;42.428;25.618;2023-03-02T01:55:54;30.67;;;10.05;;
74415;SDS011;62850;42.428;25.618;2023-03-02T01:58:20;28.20;;;10.60;;
74415;SDS011;62850;42.428;25.618;2023-03-02T02:00:46;27.38;;;10.13;;
74415;SDS011;62850;42.428;25.618;2023-03-02T02:03:16;27.95;;;10.48;;
74415;SDS011;62850;42.428;25.618;2023-03-02T02:05:48;28.20;;;10.30;;
74415;SDS011;62850;42.428;25.618;2023-03-02T02:08:42;30.17;;;10.45;;
74415;SDS011;62850;42.428;25.618;2023-03-02T02:11:10;26.40;;;10.88;;
74415;SDS011;62850;42.428;25.618;2023-03-02T02:13:37;27.83;;;10.73;;
74415;SDS011;62850;42.428;25.618;2023-03-02T02:16:03;34.85;;;12.10;;
74415;SDS011;62850;42.428;25.618;2023-03-02T02:18:29;32.42;;;11.38;;
74415;SDS011;62850;42.428;25.618;2023-03-02T02:20:55;29.15;;;10.00;;
74415;SDS011;62850;42.428;25.618;2023-03-02T02:23:25;32.33;;;11.20;;
74415;SDS011;62850;42.428;25.618;2023-03-02T02:26:37;28.30;;;9.90;;
74415;SDS011;62850;42.428;25.618;2023-03-02T02:32:09;27.33;;;10.30;;
74415;SDS011;62850;42.428;25.618;2023-03-02T02:34:24;30.65;;;10.23;;
74415;SDS011;62850;42.428;25.618;2023-03-02T02:37:13;29.52;;;10.38;;
74415;SDS011;62850;42.428;25.618;2023-03-02T02:39:47;27.77;;;10.25;;
74415;SDS011;62850;42.428;25.618;2023-03-02T02:42:20;31.05;;;9.65;;
74415;SDS011;62850;42.428;25.618;2023-03-02T02:44:52;29.92;;;10.25;;
74415;SDS011;62850;42.428;25.618;2023-03-02T02:47:22;25.52;;;10.20;;
74415;SDS011;62850;42.428;25.618;2023-03-02T02:49:52;33.42;;;10.90;;
74415;SDS011;62850;42.428;25.618;2023-03-02T02:52:19;32.22;;;11.43;;
74415;SDS011;62850;42.428;25.618;2023-03-02T02:54:48;33.97;;;11.63;;
74415;SDS011;62850;42.428;25.618;2023-03-02T02:57:16;33.72;;;11.50;;
74415;SDS011;62850;42.428;25.618;2023-03-02T02:59:44;30.20;;;11.90;;
74415;SDS011;62850;42.428;25.618;2023-03-02T03:02:20;34.92;;;12.40;;
74415;SDS011;62850;42.428;25.618;2023-03-02T03:04:47;33.30;;;12.40;;
74415;SDS011;62850;42.428;25.618;2023-03-02T03:07:20;37.45;;;12.85;;
74415;SDS011;62850;42.428;25.618;2023-03-02T03:09:50;32.90;;;10.60;;
74415;SDS011;62850;42.428;25.618;2023-03-02T03:12:22;33.17;;;10.65;;
74415;SDS011;62850;42.428;25.618;2023-03-02T03:14:50;34.50;;;11.95;;
74415;SDS011;62850;42.428;25.618;2023-03-02T03:17:17;31.95;;;11.38;;
74415;SDS011;62850;42.428;25.618;2023-03-02T03:19:43;36.20;;;11.85;;
74415;SDS011;62850;42.428;25.618;2023-03-02T03:22:10;29.10;;;11.60;;
74415;SDS011;62850;42.428;25.618;2023-03-02T03:24:38;31.90;;;12.35;;
74415;SDS011;62850;42.428;25.618;2023-03-02T03:27:06;32.90;;;12.68;;
74415;SDS011;62850;42.428;25.618;2023-03-02T03:29:34;31.80;;;11.32;;
74415;SDS011;62850;42.428;25.618;2023-03-02T03:32:01;29.30;;;11.30;;
74415;SDS011;62850;42.428;25.618;2023-03-02T03:34:27;30.05;;;9.98;;
74415;SDS011;62850;42.428;25.618;2023-03-02T03:36:54;34.42;;;11.68;;
74415;SDS011;62850;42.428;25.618;2023-03-02T03:39:25;30.80;;;11.80;;
74415;SDS011;62850;42.428;25.618;2023-03-02T03:41:52;29.80;;;12.30;;
74415;SDS011;62850;42.428;25.618;2023-03-02T03:44:18;31.45;;;11.80;;
74415;SDS011;62850;42.428;25.618;2023-03-02T03:46:43;32.90;;;11.80;;
74415;SDS011;62850;42.428;25.618;2023-03-02T03:49:09;37.78;;;12.48;;
74415;SDS011;62850;42.428;25.618;2023-03-02T03:51:34;33.40;;;11.80;;
74415;SDS011;62850;42.428;25.618;2023-03-02T03:54:03;37.47;;;12.38;;
74415;SDS011;62850;42.428;25.618;2023-03-02T03:56:33;33.05;;;12.05;;
74415;SDS011;62850;42.428;25.618;2023-03-02T03:59:01;37.33;;;12.88;;
74415;SDS011;62850;42.428;25.618;2023-03-02T04:01:32;37.90;;;11.32;;
74415;SDS011;62850;42.428;25.618;2023-03-02T04:04:03;36.45;;;12.48;;
74415;SDS011;62850;42.428;25.618;2023-03-02T04:06:29;40.50;;;12.13;;
74415;SDS011;62850;42.428;25.618;2023-03-02T04:08:54;40.10;;;13.23;;
74415;SDS011;62850;42.428;25.618;2023-03-02T04:11:20;38.78;;;13.50;;
74415;SDS011;62850;42.428;25.618;2023-03-02T04:13:46;41.78;;;13.07;;
74415;SDS011;62850;42.428;25.618;2023-03-02T04:16:12;43.28;;;13.63;;
74415;SDS011;62850;42.428;25.618;2023-03-02T04:18:38;39.85;;;12.73;;
74415;SDS011;62850;42.428;25.618;2023-03-02T04:21:04;43.15;;;13.10;;
74415;SDS011;62850;42.428;25.618;2023-03-02T04:23:29;43.85;;;14.50;;
74415;SDS011;62850;42.428;25.618;2023-03-02T04:25:55;38.85;;;12.60;;
74415;SDS011;62850;42.428;25.618;2023-03-02T04:28:20;35.67;;;12.30;;
74415;SDS011;62850;42.428;25.618;2023-03-02T04:30:46;37.45;;;13.35;;
74415;SDS011;62850;42.428;25.618;2023-03-02T04:33:11;33.70;;;12.27;;
74415;SDS011;62850;42.428;25.618;2023-03-02T04:35:36;39.30;;;13.63;;
74415;SDS011;62850;42.428;25.618;2023-03-02T04:38:02;32.70;;;12.20;;
74415;SDS011;62850;42.428;25.618;2023-03-02T04:40:27;36.28;;;13.30;;
74415;SDS011;62850;42.428;25.618;2023-03-02T04:42:53;38.83;;;13.80;;
74415;SDS011;62850;42.428;25.618;2023-03-02T04:45:19;34.25;;;11.95;;
74415;SDS011;62850;42.428;25.618;2023-03-02T04:47:44;32.88;;;12.18;;
74415;SDS011;62850;42.428;25.618;2023-03-02T04:50:11;32.00;;;11.60;;
74415;SDS011;62850;42.428;25.618;2023-03-02T04:52:38;33.10;;;11.50;;
74415;SDS011;62850;42.428;25.618;2023-03-02T04:55:04;31.02;;;11.38;;
74415;SDS011;62850;42.428;25.618;2023-03-02T04:57:30;31.63;;;11.00;;
74415;SDS011;62850;42.428;25.618;2023-03-02T04:59:56;30.65;;;12.60;;
74415;SDS011;62850;42.428;25.618;2023-03-02T05:02:21;28.38;;;11.57;;
74415;SDS011;62850;42.428;25.618;2023-03-02T05:04:47;28.15;;;11.90;;
74415;SDS011;62850;42.428;25.618;2023-03-02T05:07:12;30.05;;;12.30;;
74415;SDS011;62850;42.428;25.618;2023-03-02T05:09:38;26.38;;;11.77;;
74415;SDS011;62850;42.428;25.618;2023-03-02T05:12:03;28.15;;;11.98;;
74415;SDS011;62850;42.428;25.618;2023-03-02T05:14:29;29.10;;;12.43;;
74415;SDS011;62850;42.428;25.618;2023-03-02T05:16:55;31.13;;;12.40;;
74415;SDS011;62850;42.428;25.618;2023-03-02T05:19:20;29.58;;;12.20;;
74415;SDS011;62850;42.428;25.618;2023-03-02T05:21:46;30.58;;;12.25;;
74415;SDS011;62850;42.428;25.618;2023-03-02T05:24:11;32.35;;;12.73;;
74415;SDS011;62850;42.428;25.618;2023-03-02T05:26:38;29.73;;;12.07;;
74415;SDS011;62850;42.428;25.618;2023-03-02T05:29:04;34.03;;;12.20;;
74415;SDS011;62850;42.428;25.618;2023-03-02T05:31:31;28.05;;;11.15;;
74415;SDS011;62850;42.428;25.618;2023-03-02T05:33:59;27.20;;;11.23;;
74415;SDS011;62850;42.428;25.618;2023-03-02T05:36:24;32.50;;;12.68;;
74415;SDS011;62850;42.428;25.618;2023-03-02T05:38:50;31.55;;;12.43;;
74415;SDS011;62850;42.428;25.618;2023-03-02T05:41:15;29.02;;;12.95;;
74415;SDS011;62850;42.428;25.618;2023-03-02T05:43:41;35.08;;;12.63;;
74415;SDS011;62850;42.428;25.618;2023-03-02T05:46:07;27.92;;;11.88;;
74415;SDS011;62850;42.428;25.618;2023-03-02T05:48:33;29.33;;;13.50;;
74415;SDS011;62850;42.428;25.618;2023-03-02T05:50:59;33.10;;;13.43;;
74415;SDS011;62850;42.428;25.618;2023-03-02T05:53:24;31.40;;;13.23;;
74415;SDS011;62850;42.428;25.618;2023-03-02T05:55:50;33.33;;;13.60;;
74415;SDS011;62850;42.428;25.618;2023-03-02T05:58:16;34.00;;;14.02;;
74415;SDS011;62850;42.428;25.618;2023-03-02T06:00:43;30.40;;;12.85;;
74415;SDS011;62850;42.428;25.618;2023-03-02T06:03:09;31.33;;;13.30;;
74415;SDS011;62850;42.428;25.618;2023-03-02T06:05:35;34.42;;;13.45;;
74415;SDS011;62850;42.428;25.618;2023-03-02T06:08:01;30.85;;;13.07;;
74415;SDS011;62850;42.428;25.618;2023-03-02T06:10:27;30.90;;;13.25;;
74415;SDS011;62850;42.428;25.618;2023-03-02T06:12:52;34.13;;;13.98;;
74415;SDS011;62850;42.428;25.618;2023-03-02T06:15:18;33.55;;;13.68;;
74415;SDS011;62850;42.428;25.618;2023-03-02T06:17:44;32.22;;;13.70;;
74415;SDS011;62850;42.428;25.618;2023-03-02T06:20:10;30.30;;;13.43;;
74415;SDS011;62850;42.428;25.618;2023-03-02T06:22:40;31.35;;;13.75;;
74415;SDS011;62850;42.428;25.618;2023-03-02T06:25:10;30.27;;;13.00;;
74415;SDS011;62850;42.428;25.618;2023-03-02T06:27:39;36.90;;;13.85;;
74415;SDS011;62850;42.428;25.618;2023-03-02T06:30:06;28.63;;;12.82;;
74415;SDS011;62850;42.428;25.618;2023-03-02T06:32:32;33.45;;;13.60;;
74415;SDS011;62850;42.428;25.618;2023-03-02T06:34:59;29.25;;;12.20;;
74415;SDS011;62850;42.428;25.618;2023-03-02T06:37:26;32.30;;;13.25;;
74415;SDS011;62850;42.428;25.618;2023-03-02T06:39:53;29.08;;;11.85;;
74415;SDS011;62850;42.428;25.618;2023-03-02T06:42:19;34.85;;;14.00;;
74415;SDS011;62850;42.428;25.618;2023-03-02T06:44:44;30.02;;;12.95;;
74415;SDS011;62850;42.428;25.618;2023-03-02T06:47:10;30.88;;;12.75;;
74415;SDS011;62850;42.428;25.618;2023-03-02T06:49:35;37.53;;;14.15;;
74415;SDS011;62850;42.428;25.618;2023-03-02T06:52:01;34.92;;;13.00;;
74415;SDS011;62850;42.428;25.618;2023-03-02T06:54:26;31.52;;;13.60;;
74415;SDS011;62850;42.428;25.618;2023-03-02T06:56:52;33.17;;;14.13;;
74415;SDS011;62850;42.428;25.618;2023-03-02T06:59:17;34.55;;;12.88;;
74415;SDS011;62850;42.428;25.618;2023-03-02T07:01:43;31.83;;;13.50;;
74415;SDS011;62850;42.428;25.618;2023-03-02T07:04:08;38.90;;;14.30;;
74415;SDS011;62850;42.428;25.618;2023-03-02T07:06:34;33.53;;;14.10;;
74415;SDS011;62850;42.428;25.618;2023-03-02T07:08:59;35.80;;;14.02;;
74415;SDS011;62850;42.428;25.618;2023-03-02T07:11:25;32.10;;;12.93;;
74415;SDS011;62850;42.428;25.618;2023-03-02T07:13:51;30.15;;;13.90;;
74415;SDS011;62850;42.428;25.618;2023-03-02T07:16:17;35.40;;;13.13;;
74415;SDS011;62850;42.428;25.618;2023-03-02T07:18:42;33.85;;;13.73;;
74415;SDS011;62850;42.428;25.618;2023-03-02T07:21:08;36.45;;;13.95;;
74415;SDS011;62850;42.428;25.618;2023-03-02T07:23:33;35.17;;;12.90;;
74415;SDS011;62850;42.428;25.618;2023-03-02T07:25:59;34.22;;;13.75;;
74415;SDS011;62850;42.428;25.618;2023-03-02T07:28:24;37.17;;;13.52;;
74415;SDS011;62850;42.428;25.618;2023-03-02T07:30:50;34.97;;;13.18;;
74415;SDS011;62850;42.428;25.618;2023-03-02T07:33:17;35.00;;;14.20;;
74415;SDS011;62850;42.428;25.618;2023-03-02T07:35:43;29.17;;;12.90;;
74415;SDS011;62850;42.428;25.618;2023-03-02T07:38:08;33.38;;;13.05;;
74415;SDS011;62850;42.428;25.618;2023-03-02T07:40:34;33.50;;;13.63;;
74415;SDS011;62850;42.428;25.618;2023-03-02T07:43:01;31.88;;;14.48;;
74415;SDS011;62850;42.428;25.618;2023-03-02T07:45:27;42.63;;;15.05;;
74415;SDS011;62850;42.428;25.618;2023-03-02T07:47:52;40.58;;;14.45;;
74415;SDS011;62850;42.428;25.618;2023-03-02T07:50:18;34.20;;;14.38;;
74415;SDS011;62850;42.428;25.618;2023-03-02T07:52:43;34.10;;;13.73;;
74415;SDS011;62850;42.428;25.618;2023-03-02T07:55:09;39.65;;;15.18;;
74415;SDS011;62850;42.428;25.618;2023-03-02T07:57:34;34.53;;;14.40;;
74415;SDS011;62850;42.428;25.618;2023-03-02T08:00:00;34.13;;;13.75;;
74415;SDS011;62850;42.428;25.618;2023-03-02T08:02:26;33.63;;;14.07;;
74415;SDS011;62850;42.428;25.618;2023-03-02T08:04:52;35.35;;;13.88;;
74415;SDS011;62850;42.428;25.618;2023-03-02T08:07:18;35.15;;;14.68;;
74415;SDS011;62850;42.428;25.618;2023-03-02T08:09:43;33.35;;;14.20;;
74415;SDS011;62850;42.428;25.618;2023-03-02T08:12:09;43.75;;;15.95;;
74415;SDS011;62850;42.428;25.618;2023-03-02T08:14:34;37.65;;;14.13;;
74415;SDS011;62850;42.428;25.618;2023-03-02T08:17:02;33.72;;;13.88;;
74415;SDS011;62850;42.428;25.618;2023-03-02T08:19:29;36.03;;;15.32;;
74415;SDS011;62850;42.428;25.618;2023-03-02T08:21:54;33.97;;;13.02;;
74415;SDS011;62850;42.428;25.618;2023-03-02T08:24:20;38.55;;;15.40;;
74415;SDS011;62850;42.428;25.618;2023-03-02T08:26:45;34.38;;;14.02;;
74415;SDS011;62850;42.428;25.618;2023-03-02T08:29:11;33.22;;;12.80;;
74415;SDS011;62850;42.428;25.618;2023-03-02T08:31:36;32.67;;;13.75;;
74415;SDS011;62850;42.428;25.618;2023-03-02T08:34:01;33.55;;;13.65;;
74415;SDS011;62850;42.428;25.618;2023-03-02T08:36:27;28.92;;;12.40;;
74415;SDS011;62850;42.428;25.618;2023-03-02T08:38:53;33.92;;;13.45;;
74415;SDS011;62850;42.428;25.618;2023-03-02T08:41:19;35.40;;;14.48;;
74415;SDS011;62850;42.428;25.618;2023-03-02T08:43:46;29.83;;;12.20;;
74415;SDS011;62850;42.428;25.618;2023-03-02T08:46:13;31.38;;;12.48;;
74415;SDS011;62850;42.428;25.618;2023-03-02T08:48:41;39.00;;;13.40;;
74415;SDS011;62850;42.428;25.618;2023-03-02T08:51:08;33.00;;;13.50;;
74415;SDS011;62850;42.428;25.618;2023-03-02T08:53:37;35.33;;;13.63;;
74415;SDS011;62850;42.428;25.618;2023-03-02T08:56:13;33.55;;;13.52;;
74415;SDS011;62850;42.428;25.618;2023-03-02T08:58:40;29.52;;;13.45;;
74415;SDS011;62850;42.428;25.618;2023-03-02T09:01:11;32.05;;;13.60;;
74415;SDS011;62850;42.428;25.618;2023-03-02T09:03:37;28.98;;;12.57;;
74415;SDS011;62850;42.428;25.618;2023-03-02T09:06:03;26.33;;;11.82;;
74415;SDS011;62850;42.428;25.618;2023-03-02T09:08:29;28.75;;;12.80;;
74415;SDS011;62850;42.428;25.618;2023-03-02T09:10:54;36.45;;;14.23;;
74415;SDS011;62850;42.428;25.618;2023-03-02T09:13:19;31.42;;;13.57;;
74415;SDS011;62850;42.428;25.618;2023-03-02T09:15:45;33.97;;;13.93;;
74415;SDS011;62850;42.428;25.618;2023-03-02T09:18:10;30.95;;;12.95;;
74415;SDS011;62850;42.428;25.618;2023-03-02T09:20:36;26.90;;;12.45;;
74415;SDS011;62850;42.428;25.618;2023-03-02T09:23:01;31.15;;;13.25;;
74415;SDS011;62850;42.428;25.618;2023-03-02T09:25:27;32.35;;;13.23;;
74415;SDS011;62850;42.428;25.618;2023-03-02T09:27:53;30.40;;;13.13;;
74415;SDS011;62850;42.428;25.618;2023-03-02T09:30:19;34.63;;;13.75;;
74415;SDS011;62850;42.428;25.618;2023-03-02T09:32:44;30.45;;;13.30;;
74415;SDS011;62850;42.428;25.618;2023-03-02T09:35:10;31.58;;;13.70;;
74415;SDS011;62850;42.428;25.618;2023-03-02T09:37:35;31.55;;;14.27;;
74415;SDS011;62850;42.428;25.618;2023-03-02T09:40:03;30.08;;;13.85;;
74415;SDS011;62850;42.428;25.618;2023-03-02T09:53:15;33.10;;;13.45;;
74415;SDS011;62850;42.428;25.618;2023-03-02T09:55:42;29.83;;;13.02;;
74415;SDS011;62850;42.428;25.618;2023-03-02T09:58:16;29.45;;;12.90;;
74415;SDS011;62850;42.428;25.618;2023-03-02T10:00:44;30.95;;;12.95;;
74415;SDS011;62850;42.428;25.618;2023-03-02T10:05:52;28.05;;;13.32;;
74415;SDS011;62850;42.428;25.618;2023-03-02T10:08:20;31.08;;;13.13;;
74415;SDS011;62850;42.428;25.618;2023-03-02T10:11:00;31.15;;;12.50;;
74415;SDS011;62850;42.428;25.618;2023-03-02T10:13:39;29.30;;;13.00;;
74415;SDS011;62850;42.428;25.618;2023-03-02T10:22:08;35.10;;;14.23;;
74415;SDS011;62850;42.428;25.618;2023-03-02T10:24:50;36.63;;;13.88;;
74415;SDS011;62850;42.428;25.618;2023-03-02T10:27:35;32.70;;;13.63;;
74415;SDS011;62850;42.428;25.618;2023-03-02T10:33:08;37.22;;;14.18;;
74415;SDS011;62850;42.428;25.618;2023-03-02T10:35:40;30.10;;;14.07;;
74415;SDS011;62850;42.428;25.618;2023-03-02T10:40:41;35.05;;;14.75;;
74415;SDS011;62850;42.428;25.618;2023-03-02T10:43:34;32.30;;;14.13;;
74415;SDS011;62850;42.428;25.618;2023-03-02T10:46:05;35.00;;;14.15;;
74415;SDS011;62850;42.428;25.618;2023-03-02T10:48:32;30.35;;;12.82;;
74415;SDS011;62850;42.428;25.618;2023-03-02T10:51:17;27.33;;;12.38;;
74415;SDS011;62850;42.428;25.618;2023-03-02T10:54:00;33.85;;;14.07;;
74415;SDS011;62850;42.428;25.618;2023-03-02T10:56:27;31.83;;;13.10;;
74415;SDS011;62850;42.428;25.618;2023-03-02T10:58:54;34.22;;;13.50;;
74415;SDS011;62850;42.428;25.618;2023-03-02T11:01:26;31.77;;;13.30;;
74415;SDS011;62850;42.428;25.618;2023-03-02T11:03:56;28.45;;;11.88;;
74415;SDS011;62850;42.428;25.618;2023-03-02T11:06:24;28.73;;;12.73;;
74415;SDS011;62850;42.428;25.618;2023-03-02T11:08:56;28.52;;;12.50;;
74415;SDS011;62850;42.428;25.618;2023-03-02T11:11:24;35.00;;;13.82;;
74415;SDS011;62850;42.428;25.618;2023-03-02T11:13:49;33.30;;;12.75;;
74415;SDS011;62850;42.428;25.618;2023-03-02T11:18:51;30.05;;;12.68;;
74415;SDS011;62850;42.428;25.618;2023-03-02T11:29:13;26.42;;;11.65;;
74415;SDS011;62850;42.428;25.618;2023-03-02T11:34:54;23.65;;;10.45;;
74415;SDS011;62850;42.428;25.618;2023-03-02T11:37:22;25.13;;;11.10;;
74415;SDS011;62850;42.428;25.618;2023-03-02T11:42:44;24.88;;;10.65;;
74415;SDS011;62850;42.428;25.618;2023-03-02T11:55:43;23.38;;;11.10;;
74415;SDS011;62850;42.428;25.618;2023-03-02T11:58:15;24.88;;;10.60;;
74415;SDS011;62850;42.428;25.618;2023-03-02T12:00:42;29.52;;;11.35;;
74415;SDS011;62850;42.428;25.618;2023-03-02T12:06:02;26.73;;;11.95;;
74415;SDS011;62850;42.428;25.618;2023-03-02T12:11:57;21.80;;;10.88;;
74415;SDS011;62850;42.428;25.618;2023-03-02T12:14:43;23.83;;;11.45;;
74415;SDS011;62850;42.428;25.618;2023-03-02T12:22:32;32.92;;;13.30;;
74415;SDS011;62850;42.428;25.618;2023-03-02T12:25:21;30.45;;;12.32;;
74415;SDS011;62850;42.428;25.618;2023-03-02T12:27:51;28.75;;;12.85;;
74415;SDS011;62850;42.428;25.618;2023-03-02T12:35:35;34.47;;;14.40;;
74415;SDS011;62850;42.428;25.618;2023-03-02T12:40:52;29.08;;;12.65;;
74415;SDS011;62850;42.428;25.618;2023-03-02T12:43:33;25.73;;;12.10;;
74415;SDS011;62850;42.428;25.618;2023-03-02T12:46:10;24.40;;;11.75;;
74415;SDS011;62850;42.428;25.618;2023-03-02T12:51:25;26.00;;;11.35;;
74415;SDS011;62850;42.428;25.618;2023-03-02T12:54:03;23.95;;;11.20;;
74415;SDS011;62850;42.428;25.618;2023-03-02T12:56:36;22.80;;;11.90;;
74415;SDS011;62850;42.428;25.618;2023-03-02T12:59:01;24.38;;;10.63;;
74415;SDS011;62850;42.428;25.618;2023-03-02T13:01:28;27.42;;;12.15;;
74415;SDS011;62850;42.428;25.618;2023-03-02T13:03:55;23.08;;;10.93;;
74415;SDS011;62850;42.428;25.618;2023-03-02T13:06:22;23.58;;;11.27;;
74415;SDS011;62850;42.428;25.618;2023-03-02T13:08:52;23.60;;;11.40;;
74415;SDS011;62850;42.428;25.618;2023-03-02T13:13:58;27.08;;;11.50;;
74415;SDS011;62850;42.428;25.618;2023-03-02T13:18:59;28.58;;;12.15;;
74415;SDS011;62850;42.428;25.618;2023-03-02T13:21:29;25.40;;;11.05;;
74415;SDS011;62850;42.428;25.618;2023-03-02T13:23:56;31.13;;;12.43;;
74415;SDS011;62850;42.428;25.618;2023-03-02T13:26:24;30.08;;;12.77;;
74415;SDS011;62850;42.428;25.618;2023-03-02T13:31:47;25.02;;;12.80;;
74415;SDS011;62850;42.428;25.618;2023-03-02T13:34:23;29.73;;;12.52;;
74415;SDS011;62850;42.428;25.618;2023-03-02T13:36:51;29.02;;;13.82;;
74415;SDS011;62850;42.428;25.618;2023-03-02T13:39:19;28.73;;;13.05;;
74415;SDS011;62850;42.428;25.618;2023-03-02T13:41:56;32.42;;;13.75;;
74415;SDS011;62850;42.428;25.618;2023-03-02T13:44:26;28.58;;;12.07;;
74415;SDS011;62850;42.428;25.618;2023-03-02T13:46:53;31.27;;;14.68;;
74415;SDS011;62850;42.428;25.618;2023-03-02T13:49:29;34.70;;;15.23;;
74415;SDS011;62850;42.428;25.618;2023-03-02T13:52:00;40.92;;;17.25;;
74415;SDS011;62850;42.428;25.618;2023-03-02T13:54:29;34.70;;;14.75;;
74415;SDS011;62850;42.428;25.618;2023-03-02T13:56:57;32.63;;;14.07;;
74415;SDS011;62850;42.428;25.618;2023-03-02T13:59:25;33.15;;;14.68;;
74415;SDS011;62850;42.428;25.618;2023-03-02T14:01:50;27.08;;;13.00;;
74415;SDS011;62850;42.428;25.618;2023-03-02T14:04:18;36.80;;;14.82;;
74415;SDS011;62850;42.428;25.618;2023-03-02T14:06:50;32.70;;;14.88;;
74415;SDS011;62850;42.428;25.618;2023-03-02T14:09:17;36.55;;;13.75;;
74415;SDS011;62850;42.428;25.618;2023-03-02T14:11:44;34.25;;;13.20;;
74415;SDS011;62850;42.428;25.618;2023-03-02T14:14:13;25.83;;;12.90;;
74415;SDS011;62850;42.428;25.618;2023-03-02T14:16:41;28.95;;;12.98;;
74415;SDS011;62850;42.428;25.618;2023-03-02T14:19:08;32.53;;;12.77;;
74415;SDS011;62850;42.428;25.618;2023-03-02T14:21:37;33.20;;;12.45;;
74415;SDS011;62850;42.428;25.618;2023-03-02T14:24:03;32.20;;;13.65;;
74415;SDS011;62850;42.428;25.618;2023-03-02T14:31:27;27.45;;;11.65;;
74415;SDS011;62850;42.428;25.618;2023-03-02T14:33:53;29.17;;;12.80;;
74415;SDS011;62850;42.428;25.618;2023-03-02T14:36:22;33.25;;;13.20;;
74415;SDS011;62850;42.428;25.618;2023-03-02T14:38:58;32.15;;;12.95;;
74415;SDS011;62850;42.428;25.618;2023-03-02T14:41:27;38.72;;;15.00;;
74415;SDS011;62850;42.428;25.618;2023-03-02T14:43:53;32.38;;;14.40;;
74415;SDS011;62850;42.428;25.618;2023-03-02T14:46:19;39.60;;;15.23;;
74415;SDS011;62850;42.428;25.618;2023-03-02T14:48:45;31.55;;;13.45;;
74415;SDS011;62850;42.428;25.618;2023-03-02T14:53:45;33.92;;;14.00;;
74415;SDS011;62850;42.428;25.618;2023-03-02T14:56:11;34.85;;;15.10;;
74415;SDS011;62850;42.428;25.618;2023-03-02T14:58:37;33.08;;;14.80;;
74415;SDS011;62850;42.428;25.618;2023-03-02T15:01:03;34.45;;;15.05;;
74415;SDS011;62850;42.428;25.618;2023-03-02T15:03:28;36.03;;;15.13;;
74415;SDS011;62850;42.428;25.618;2023-03-02T15:05:54;33.28;;;14.45;;
74415;SDS011;62850;42.428;25.618;2023-03-02T15:08:20;32.20;;;14.00;;
74415;SDS011;62850;42.428;25.618;2023-03-02T15:10:46;33.15;;;14.60;;
74415;SDS011;62850;42.428;25.618;2023-03-02T15:13:13;34.70;;;15.82;;
74415;SDS011;62850;42.428;25.618;2023-03-02T15:15:39;37.08;;;14.70;;
74415;SDS011;62850;42.428;25.618;2023-03-02T15:18:07;29.40;;;14.57;;
74415;SDS011;62850;42.428;25.618;2023-03-02T15:20:33;34.63;;;15.18;;
74415;SDS011;62850;42.428;25.618;2023-03-02T15:22:59;34.58;;;15.25;;
74415;SDS011;62850;42.428;25.618;2023-03-02T15:25:25;38.90;;;16.35;;
74415;SDS011;62850;42.428;25.618;2023-03-02T15:27:51;35.70;;;15.52;;
74415;SDS011;62850;42.428;25.618;2023-03-02T15:30:18;33.53;;;15.60;;
74415;SDS011;62850;42.428;25.618;2023-03-02T15:32:44;39.28;;;15.70;;
74415;SDS011;62850;42.428;25.618;2023-03-02T15:35:09;33.28;;;16.50;;
74415;SDS011;62850;42.428;25.618;2023-03-02T15:37:36;36.22;;;15.80;;
74415;SDS011;62850;42.428;25.618;2023-03-02T15:40:02;33.63;;;15.40;;
74415;SDS011;62850;42.428;25.618;2023-03-02T15:42:29;35.40;;;16.95;;
74415;SDS011;62850;42.428;25.618;2023-03-02T15:44:54;38.80;;;16.83;;
74415;SDS011;62850;42.428;25.618;2023-03-02T15:47:20;32.00;;;15.98;;
74415;SDS011;62850;42.428;25.618;2023-03-02T15:49:45;38.90;;;17.27;;
74415;SDS011;62850;42.428;25.618;2023-03-02T15:52:11;33.83;;;16.67;;